Terminal Aerodrome Forecast
Issued by NWS Sterling, VA

Current Version | Previous Version | Graphics & Text | Print | Product List | Glossary On
Versions: 1 2 3 4 5 6 7 8 9 10 11 12 13 14 15 16 17 18 19 20 21 22 23 24 25
000
FTUS41 KLWX 301141
TAFDCA
TAF
KDCA 301141Z 3012/3112 19008KT P6SM BKN150
     FM301600 22010KT P6SM VCTS BKN060CB
      TEMPO 3020/3024 4SM -TSRA BKN050CB
     FM310000 29006KT P6SM SCT060
     FM310400 32008KT P6SM FEW250=

USA.gov is the U.S. government's official web portal to all federal, state and local government web resources and services.